Brownsburg, Indiana
Current Conditions -  °F | °C
As of 6:53 PM on Monday 20 Oct 2014 (Local Time) from KEYE Reporting Station
Few Clouds Few Clouds  
Wind Chill: 63°   Ceiling: Unl
Heat Index: 63°   Visibility: 10mi
Dew Point: 47°   Wind: 12mph
Humidity: 56%   Direction: 300°WNW
Pressure: 29.87"   Gusts: NA
Location:  39.84°N, 86.4°W
Report Text: KEYE 202253Z AUTO 30010KT 10SM FEW075 17/08 A2987 RMK AO2 SLP112 T01720083
Loading
Personal Weather Stations






























Interactive Weather Map
Tropical Storm Tracking
New forecast layout! Learn more

10-Day Weather Forecast

Advertisements
Track Severe Weather on mobile